Portada
METAR-TAF:

METAR-TAF

Aeropuertos :

Aeropuerto Internacional Chhatrapati Shivaji

Bombay, India

latitud: 19-07N, longitud: 072-51E, altitud: 8 m

Observación

El informe se hizo hace 17 minutos, a las 17:30 UTC
Viento 4 kt del este-noreste
Temperatura 28°C
Humedad 66%
Presión 1011 hPa
Visibilidad: 3000 m
calima

METAR: VABB 111730Z 07004KT 3000 HZ NSC 28/21 Q1011 NOSIG

Hora: 23:17 (17:47 UTC)

Pronóstico

El informe se hizo hace 47 minutos, a las 17:00 UTC
Pronóstico válido del 11 a las 18 UTC al 12 a las 03 UTC
Viento 5 kt del noreste
Visibilidad: 2500 m
calima
Evolucionando progresivamente
del 12 a las 01 UTC al 12 a las 03 UTC
Viento 6 kt del este-sureste
Visibilidad: 2000 m
neblina, calima

TAF: VABB 111700Z 1118/1203 05005KT 2500 HZ NSC BECMG 1201/1203 12006KT 2000 BR HZ

Observaciones y pronósticos meteorológicos de más de 4000 aeropuertos (mensajes METAR y TAF).

Los puntos amarillos y rojos representan las estaciones disponibles.

Ponga el ratón en el punto deseado para ver el nombre de la estación.

Haga clic para ver las observaciones y los pronósticos meteorológicos.

Para cambiar el mapa : haga clic en los botones verdes con una cruz de color negro para hacer un zoom, en el botón verde con un guión para alejar o en las flechas verdes para mapas adyacentes.


METAR-TAF: